Thunder radar more information blitzortung!


Rain radar  rain snow radar



Skogbrann Fra: 22-04-2019 23:00 Til: 23-04-2019 22:59 advarsel for: Skogbrann Level: Gul info button

Nearby METAR Reports

   
ENZV - Stavanger
Oppdatert: Apr 22 2019 1:50 pm
Klart  
Klart  
   Vind: Sør 6.7 m/s
Vind: Sør 6.7 m/s
Temperatur: 20°C
Duggpunkt: 2°C
Luftfuktighet: 30%
Barometer: 1017 hPa
Sikt: More than 10 km
Detaljer skyer: Klart ft
ENZV 221150Z 18013KT 140V210 CAVOK 20/02 Q1017 NOSIG
ENCN - Kristiansand
Oppdatert: Apr 22 2019 1:50 pm
Klart  
Klart  
   Vind: SØ 4.1 m/s
Vind: SØ 4.1 m/s
Temperatur: 17°C
Duggpunkt: 0°C
Luftfuktighet: 32%
Barometer: 1021 hPa
Sikt: More than 10 km
Detaljer skyer: Klart ft
ENCN 221150Z 13008KT 090V160 CAVOK 17/00 Q1021
ENBR - Bergen
Oppdatert: Apr 22 2019 1:50 pm
Klart  
Klart  
   Vind: Sør 5.7 m/s
Vind: Sør 5.7 m/s
Temperatur: 17°C
Duggpunkt: 1°C
Luftfuktighet: 34%
Barometer: 1017 hPa
Sikt: More than 10 km
Detaljer skyer: Klart ft
ENBR 221150Z 18011KT CAVOK 17/01 Q1017 NOSIG RMK WIND 1200FT 16019KT
ENGM - Oslo
Oppdatert: Apr 22 2019 1:50 pm
Klart  
Klart  
   Vind: SV 5.7 m/s
Vind: SV 5.7 m/s
Temperatur: 18°C
Duggpunkt: 1°C
Luftfuktighet: 32%
Barometer: 1021 hPa
Sikt: More than 10 km
Detaljer skyer: Klart ft
ENGM 221150Z 22011KT 140V250 CAVOK 18/01 Q1021 NOSIG
ENVA - Trondheim
Oppdatert: Apr 22 2019 1:50 pm
Klart  
Klart  
   Vind: VEST 3.1 m/s
Vind: VEST 3.1 m/s
Temperatur: 18°C
Duggpunkt: 8°C
Luftfuktighet: 52%
Barometer: 1016 hPa
Sikt: More than 10 km
Detaljer skyer: Klart ft
ENVA 221150Z 26006KT 230V290 CAVOK 18/08 Q1016 NOSIG RMK WIND 670FT 15011KT
ENTC - Tromsø
Oppdatert: Apr 22 2019 1:50 pm
Delvis overskyet  
Delvis overskyet  
   Vind: SSV 5.1 m/s
Vind: SSV 5.1 m/s
Temperatur: 7°C
Wind Chill: 4°C
Duggpunkt: 2°C
Luftfuktighet: 71%
Barometer: 1013 hPa
Skyer: Partly Cloudy
Sikt: More than 10 km
Detaljer skyer: Noen skyer 1500 ft,
Delvis overskyet 4100 ft
ENTC 221150Z 20010KT 9999 FEW015 SCT041 07/02 Q1013 NOSIG RMK WIND 2600FT 20020KT

Script utviklet av  Saratoga-weather.org Tilpasset for tamplaten av  Weerstation Leuven

Du finner vår vær info også på:

European Weather Network

WeatherCloud

Weather Underground

AWEKAS

HAMweather, WeatherForYou, PWS Weather

Utrustning vi bruker:

vær-station
Davis VP2

vær-programmet
Weather Display

Davis VP2

Weather Display